sensor_id;sensor_type;location;lat;lon;timestamp;temperature;humidity
22984;DHT22;11658;48.908;9.140;2023-06-26T04:01:49;18.60;99.90
22984;DHT22;11658;48.908;9.140;2023-06-26T04:04:15;18.60;99.90
22984;DHT22;11658;48.908;9.140;2023-06-26T04:06:40;18.70;99.90
22984;DHT22;11658;48.908;9.140;2023-06-26T04:09:06;18.80;99.90
22984;DHT22;11658;48.908;9.140;2023-06-26T04:11:31;18.80;99.90
22984;DHT22;11658;48.908;9.140;2023-06-26T04:13:57;18.90;99.90
22984;DHT22;11658;48.908;9.140;2023-06-26T04:16:23;19.00;99.90
22984;DHT22;11658;48.908;9.140;2023-06-26T04:18:51;19.10;99.90
22984;DHT22;11658;48.908;9.140;2023-06-26T04:21:16;19.20;99.90
22984;DHT22;11658;48.908;9.140;2023-06-26T04:23:42;19.20;99.90
22984;DHT22;11658;48.908;9.140;2023-06-26T04:26:08;19.30;99.90
22984;DHT22;11658;48.908;9.140;2023-06-26T04:28:35;19.40;99.90
22984;DHT22;11658;48.908;9.140;2023-06-26T04:31:01;19.80;99.90
22984;DHT22;11658;48.908;9.140;2023-06-26T04:33:29;21.00;99.90
22984;DHT22;11658;48.908;9.140;2023-06-26T04:35:54;22.90;99.90
22984;DHT22;11658;48.908;9.140;2023-06-26T04:38:20;24.80;99.90
22984;DHT22;11658;48.908;9.140;2023-06-26T04:40:47;26.30;99.90
22984;DHT22;11658;48.908;9.140;2023-06-26T04:43:12;27.60;99.90
22984;DHT22;11658;48.908;9.140;2023-06-26T04:45:38;28.50;99.90
22984;DHT22;11658;48.908;9.140;2023-06-26T04:48:04;29.60;99.90
22984;DHT22;11658;48.908;9.140;2023-06-26T04:50:31;30.60;99.90
22984;DHT22;11658;48.908;9.140;2023-06-26T04:52:56;30.80;99.10
22984;DHT22;11658;48.908;9.140;2023-06-26T04:55:26;31.10;97.40
22984;DHT22;11658;48.908;9.140;2023-06-26T04:57:52;31.10;96.10
22984;DHT22;11658;48.908;9.140;2023-06-26T05:00:18;31.10;95.30
22984;DHT22;11658;48.908;9.140;2023-06-26T05:02:44;31.50;94.60
22984;DHT22;11658;48.908;9.140;2023-06-26T05:05:09;32.50;93.20
22984;DHT22;11658;48.908;9.140;2023-06-26T05:07:36;33.20;91.50
22984;DHT22;11658;48.908;9.140;2023-06-26T05:10:02;33.80;90.20
22984;DHT22;11658;48.908;9.140;2023-06-26T05:12:27;34.40;87.10
22984;DHT22;11658;48.908;9.140;2023-06-26T05:14:53;35.00;84.30
22984;DHT22;11658;48.908;9.140;2023-06-26T05:17:18;35.50;81.60
22984;DHT22;11658;48.908;9.140;2023-06-26T05:19:44;36.00;78.70
22984;DHT22;11658;48.908;9.140;2023-06-26T05:22:10;36.30;77.20
22984;DHT22;11658;48.908;9.140;2023-06-26T05:24:38;36.70;76.10
22984;DHT22;11658;48.908;9.140;2023-06-26T05:27:05;37.20;73.50
22984;DHT22;11658;48.908;9.140;2023-06-26T05:29:31;37.50;72.20
22984;DHT22;11658;48.908;9.140;2023-06-26T05:31:58;37.30;73.80
22984;DHT22;11658;48.908;9.140;2023-06-26T05:34:24;37.00;73.60
22984;DHT22;11658;48.908;9.140;2023-06-26T05:36:57;37.00;72.70
22984;DHT22;11658;48.908;9.140;2023-06-26T05:39:23;37.20;69.10
22984;DHT22;11658;48.908;9.140;2023-06-26T05:41:50;37.40;66.60
22984;DHT22;11658;48.908;9.140;2023-06-26T05:44:16;37.50;66.70
22984;DHT22;11658;48.908;9.140;2023-06-26T05:46:41;37.40;64.80
22984;DHT22;11658;48.908;9.140;2023-06-26T05:49:09;37.30;64.70
22984;DHT22;11658;48.908;9.140;2023-06-26T05:51:35;37.70;64.90
22984;DHT22;11658;48.908;9.140;2023-06-26T05:54:01;37.50;63.70
22984;DHT22;11658;48.908;9.140;2023-06-26T05:56:30;37.70;62.70
22984;DHT22;11658;48.908;9.140;2023-06-26T05:58:56;38.70;62.40
22984;DHT22;11658;48.908;9.140;2023-06-26T06:01:22;38.90;61.70
22984;DHT22;11658;48.908;9.140;2023-06-26T06:03:48;39.30;60.80
22984;DHT22;11658;48.908;9.140;2023-06-26T06:06:14;39.20;59.50
22984;DHT22;11658;48.908;9.140;2023-06-26T06:08:41;39.10;59.60
22984;DHT22;11658;48.908;9.140;2023-06-26T06:11:06;39.20;58.70
22984;DHT22;11658;48.908;9.140;2023-06-26T06:13:32;39.30;58.50
22984;DHT22;11658;48.908;9.140;2023-06-26T06:15:58;39.90;58.20
22984;DHT22;11658;48.908;9.140;2023-06-26T06:18:23;39.90;57.30
22984;DHT22;11658;48.908;9.140;2023-06-26T06:20:49;40.00;56.50
22984;DHT22;11658;48.908;9.140;2023-06-26T06:23:14;40.20;56.60
22984;DHT22;11658;48.908;9.140;2023-06-26T06:25:40;39.60;56.10
22984;DHT22;11658;48.908;9.140;2023-06-26T06:28:05;39.70;55.40
22984;DHT22;11658;48.908;9.140;2023-06-26T06:30:31;37.90;55.60
22984;DHT22;11658;48.908;9.140;2023-06-26T06:32:57;36.90;58.40
22984;DHT22;11658;48.908;9.140;2023-06-26T06:35:23;37.20;58.60
22984;DHT22;11658;48.908;9.140;2023-06-26T06:37:49;37.60;58.70
22984;DHT22;11658;48.908;9.140;2023-06-26T06:40:15;37.80;58.10
22984;DHT22;11658;48.908;9.140;2023-06-26T06:42:40;38.50;57.50
22984;DHT22;11658;48.908;9.140;2023-06-26T06:45:06;39.00;57.00
22984;DHT22;11658;48.908;9.140;2023-06-26T06:47:32;37.10;57.60
22984;DHT22;11658;48.908;9.140;2023-06-26T06:49:59;34.80;60.00
22984;DHT22;11658;48.908;9.140;2023-06-26T06:52:27;34.70;61.60
22984;DHT22;11658;48.908;9.140;2023-06-26T06:54:53;33.30;60.70
22984;DHT22;11658;48.908;9.140;2023-06-26T06:57:22;31.40;60.80
22984;DHT22;11658;48.908;9.140;2023-06-26T06:59:48;29.90;64.10
22984;DHT22;11658;48.908;9.140;2023-06-26T07:04:40;28.60;70.40
22984;DHT22;11658;48.908;9.140;2023-06-26T07:07:06;28.40;71.10
22984;DHT22;11658;48.908;9.140;2023-06-26T07:09:32;27.90;73.40
22984;DHT22;11658;48.908;9.140;2023-06-26T07:11:58;27.70;74.90
22984;DHT22;11658;48.908;9.140;2023-06-26T07:14:24;27.40;77.90
22984;DHT22;11658;48.908;9.140;2023-06-26T07:16:49;27.20;77.40
22984;DHT22;11658;48.908;9.140;2023-06-26T07:19:15;27.30;79.00
22984;DHT22;11658;48.908;9.140;2023-06-26T07:21:40;27.10;78.40
22984;DHT22;11658;48.908;9.140;2023-06-26T07:24:07;27.00;78.70
22984;DHT22;11658;48.908;9.140;2023-06-26T07:26:33;26.90;79.50
22984;DHT22;11658;48.908;9.140;2023-06-26T07:28:58;26.60;80.10
22984;DHT22;11658;48.908;9.140;2023-06-26T07:31:24;26.70;81.20
22984;DHT22;11658;48.908;9.140;2023-06-26T07:33:49;26.60;81.50
22984;DHT22;11658;48.908;9.140;2023-06-26T07:36:15;26.60;82.80
22984;DHT22;11658;48.908;9.140;2023-06-26T07:38:41;26.70;83.00
22984;DHT22;11658;48.908;9.140;2023-06-26T07:41:06;26.70;83.20
22984;DHT22;11658;48.908;9.140;2023-06-26T07:43:32;26.60;83.90
22984;DHT22;11658;48.908;9.140;2023-06-26T07:45:57;26.70;84.40
22984;DHT22;11658;48.908;9.140;2023-06-26T07:48:24;27.00;84.80
22984;DHT22;11658;48.908;9.140;2023-06-26T07:50:50;27.10;84.90
22984;DHT22;11658;48.908;9.140;2023-06-26T07:53:16;27.20;84.40
22984;DHT22;11658;48.908;9.140;2023-06-26T07:55:42;27.30;84.70
22984;DHT22;11658;48.908;9.140;2023-06-26T07:58:08;27.30;84.40
22984;DHT22;11658;48.908;9.140;2023-06-26T08:00:34;27.50;85.20
22984;DHT22;11658;48.908;9.140;2023-06-26T08:02:59;27.50;86.10
22984;DHT22;11658;48.908;9.140;2023-06-26T08:05:25;27.20;86.90
22984;DHT22;11658;48.908;9.140;2023-06-26T08:07:51;27.00;88.00
22984;DHT22;11658;48.908;9.140;2023-06-26T08:10:16;26.90;88.30
22984;DHT22;11658;48.908;9.140;2023-06-26T08:12:42;26.90;89.40
22984;DHT22;11658;48.908;9.140;2023-06-26T08:15:11;27.00;89.90
22984;DHT22;11658;48.908;9.140;2023-06-26T08:17:37;27.10;90.00
22984;DHT22;11658;48.908;9.140;2023-06-26T08:20:03;27.10;90.00
22984;DHT22;11658;48.908;9.140;2023-06-26T08:22:29;27.00;90.10
22984;DHT22;11658;48.908;9.140;2023-06-26T08:24:54;27.00;90.50
22984;DHT22;11658;48.908;9.140;2023-06-26T08:27:20;27.10;90.50
22984;DHT22;11658;48.908;9.140;2023-06-26T08:29:46;27.10;90.90
22984;DHT22;11658;48.908;9.140;2023-06-26T08:32:11;27.20;91.10
22984;DHT22;11658;48.908;9.140;2023-06-26T08:34:37;27.30;91.20
22984;DHT22;11658;48.908;9.140;2023-06-26T08:37:03;27.30;91.80
22984;DHT22;11658;48.908;9.140;2023-06-26T08:39:28;27.50;91.80
22984;DHT22;11658;48.908;9.140;2023-06-26T08:41:54;27.80;91.90
22984;DHT22;11658;48.908;9.140;2023-06-26T08:44:20;28.00;91.40
22984;DHT22;11658;48.908;9.140;2023-06-26T08:46:50;28.00;91.10
22984;DHT22;11658;48.908;9.140;2023-06-26T08:51:56;28.30;91.40
22984;DHT22;11658;48.908;9.140;2023-06-26T08:54:28;28.40;91.60
22984;DHT22;11658;48.908;9.140;2023-06-26T08:56:57;28.50;90.70
22984;DHT22;11658;48.908;9.140;2023-06-26T08:59:24;28.70;90.90
22984;DHT22;11658;48.908;9.140;2023-06-26T09:01:50;28.60;91.30
22984;DHT22;11658;48.908;9.140;2023-06-26T09:04:16;28.50;90.80
22984;DHT22;11658;48.908;9.140;2023-06-26T09:06:41;28.40;91.30
22984;DHT22;11658;48.908;9.140;2023-06-26T09:09:07;28.60;91.20
22984;DHT22;11658;48.908;9.140;2023-06-26T09:11:33;28.80;90.50
22984;DHT22;11658;48.908;9.140;2023-06-26T09:13:59;28.80;90.50
22984;DHT22;11658;48.908;9.140;2023-06-26T09:16:26;28.80;89.80
22984;DHT22;11658;48.908;9.140;2023-06-26T09:18:52;28.90;90.00
22984;DHT22;11658;48.908;9.140;2023-06-26T09:21:18;28.90;88.50
22984;DHT22;11658;48.908;9.140;2023-06-26T09:23:43;28.90;88.80
22984;DHT22;11658;48.908;9.140;2023-06-26T09:26:09;29.10;88.70
22984;DHT22;11658;48.908;9.140;2023-06-26T09:28:36;29.40;88.50
22984;DHT22;11658;48.908;9.140;2023-06-26T09:31:03;29.30;89.10
22984;DHT22;11658;48.908;9.140;2023-06-26T09:33:34;29.30;89.60
22984;DHT22;11658;48.908;9.140;2023-06-26T09:36:01;29.10;89.80
22984;DHT22;11658;48.908;9.140;2023-06-26T09:38:26;29.20;90.10
22984;DHT22;11658;48.908;9.140;2023-06-26T09:40:52;28.90;90.00
22984;DHT22;11658;48.908;9.140;2023-06-26T09:43:18;28.90;90.30
22984;DHT22;11658;48.908;9.140;2023-06-26T09:45:44;28.90;90.90
22984;DHT22;11658;48.908;9.140;2023-06-26T09:48:10;28.90;90.80
22984;DHT22;11658;48.908;9.140;2023-06-26T09:50:36;28.80;91.20
22984;DHT22;11658;48.908;9.140;2023-06-26T09:53:13;28.80;91.30
22984;DHT22;11658;48.908;9.140;2023-06-26T09:55:40;29.00;91.40
22984;DHT22;11658;48.908;9.140;2023-06-26T09:58:11;29.00;91.20
22984;DHT22;11658;48.908;9.140;2023-06-26T10:00:41;28.90;91.40
22984;DHT22;11658;48.908;9.140;2023-06-26T10:03:07;28.80;91.60
22984;DHT22;11658;48.908;9.140;2023-06-26T10:05:33;28.80;91.60
22984;DHT22;11658;48.908;9.140;2023-06-26T10:07:59;28.70;92.10
22984;DHT22;11658;48.908;9.140;2023-06-26T10:10:27;28.60;92.80
22984;DHT22;11658;48.908;9.140;2023-06-26T10:12:59;28.70;92.30
22984;DHT22;11658;48.908;9.140;2023-06-26T10:15:25;28.70;91.80
22984;DHT22;11658;48.908;9.140;2023-06-26T10:17:55;28.70;92.20
22984;DHT22;11658;48.908;9.140;2023-06-26T10:20:21;28.90;91.70
22984;DHT22;11658;48.908;9.140;2023-06-26T10:22:47;28.80;91.90
22984;DHT22;11658;48.908;9.140;2023-06-26T10:25:19;29.00;92.00
22984;DHT22;11658;48.908;9.140;2023-06-26T10:27:49;29.40;91.40
22984;DHT22;11658;48.908;9.140;2023-06-26T10:30:19;29.20;91.40
22984;DHT22;11658;48.908;9.140;2023-06-26T10:32:48;29.00;90.90
22984;DHT22;11658;48.908;9.140;2023-06-26T10:35:14;29.10;91.40
22984;DHT22;11658;48.908;9.140;2023-06-26T10:37:44;29.10;91.80
22984;DHT22;11658;48.908;9.140;2023-06-26T10:40:11;29.10;92.30
22984;DHT22;11658;48.908;9.140;2023-06-26T10:42:39;29.00;92.30
22984;DHT22;11658;48.908;9.140;2023-06-26T10:45:17;28.60;93.30
22984;DHT22;11658;48.908;9.140;2023-06-26T10:47:47;28.70;93.70
22984;DHT22;11658;48.908;9.140;2023-06-26T10:50:19;28.80;93.60
22984;DHT22;11658;48.908;9.140;2023-06-26T10:52:45;28.80;93.80
22984;DHT22;11658;48.908;9.140;2023-06-26T10:55:13;28.80;94.20
22984;DHT22;11658;48.908;9.140;2023-06-26T10:57:39;28.90;94.80
22984;DHT22;11658;48.908;9.140;2023-06-26T11:00:14;28.70;95.10
22984;DHT22;11658;48.908;9.140;2023-06-26T11:02:50;28.90;95.10
22984;DHT22;11658;48.908;9.140;2023-06-26T11:05:27;29.00;94.50
22984;DHT22;11658;48.908;9.140;2023-06-26T11:08:09;29.00;95.10
22984;DHT22;11658;48.908;9.140;2023-06-26T11:10:54;28.90;96.20
22984;DHT22;11658;48.908;9.140;2023-06-26T11:13:20;28.90;95.50
22984;DHT22;11658;48.908;9.140;2023-06-26T11:15:50;28.70;95.90
22984;DHT22;11658;48.908;9.140;2023-06-26T11:18:16;28.50;95.80
22984;DHT22;11658;48.908;9.140;2023-06-26T11:20:42;28.60;96.00
22984;DHT22;11658;48.908;9.140;2023-06-26T11:23:11;28.60;96.80
22984;DHT22;11658;48.908;9.140;2023-06-26T11:25:37;28.90;96.70
22984;DHT22;11658;48.908;9.140;2023-06-26T11:28:09;28.90;96.00
22984;DHT22;11658;48.908;9.140;2023-06-26T11:30:35;28.80;96.70
22984;DHT22;11658;48.908;9.140;2023-06-26T11:33:08;28.60;97.20
22984;DHT22;11658;48.908;9.140;2023-06-26T11:35:34;28.60;97.60
22984;DHT22;11658;48.908;9.140;2023-06-26T11:38:01;28.80;97.80
22984;DHT22;11658;48.908;9.140;2023-06-26T11:40:34;29.00;98.00
22984;DHT22;11658;48.908;9.140;2023-06-26T11:43:03;29.40;98.00
22984;DHT22;11658;48.908;9.140;2023-06-26T11:45:30;29.50;97.60
22984;DHT22;11658;48.908;9.140;2023-06-26T11:47:57;29.50;97.60
22984;DHT22;11658;48.908;9.140;2023-06-26T11:50:24;29.30;98.00
22984;DHT22;11658;48.908;9.140;2023-06-26T11:52:56;29.80;97.90
22984;DHT22;11658;48.908;9.140;2023-06-26T11:55:26;29.50;97.80
22984;DHT22;11658;48.908;9.140;2023-06-26T11:57:55;29.50;97.80
22984;DHT22;11658;48.908;9.140;2023-06-26T12:00:21;29.10;97.70
22984;DHT22;11658;48.908;9.140;2023-06-26T12:02:47;28.70;98.50
22984;DHT22;11658;48.908;9.140;2023-06-26T12:05:14;28.70;99.40
22984;DHT22;11658;48.908;9.140;2023-06-26T12:07:45;28.80;99.90
22984;DHT22;11658;48.908;9.140;2023-06-26T12:10:11;28.70;99.90
22984;DHT22;11658;48.908;9.140;2023-06-26T12:12:38;28.70;99.90
22984;DHT22;11658;48.908;9.140;2023-06-26T12:15:06;29.00;99.50
22984;DHT22;11658;48.908;9.140;2023-06-26T12:17:32;28.80;99.00
22984;DHT22;11658;48.908;9.140;2023-06-26T12:19:57;28.50;99.90
22984;DHT22;11658;48.908;9.140;2023-06-26T12:22:23;28.60;99.90
22984;DHT22;11658;48.908;9.140;2023-06-26T12:24:49;28.80;99.90
22984;DHT22;11658;48.908;9.140;2023-06-26T12:27:17;28.80;99.90
22984;DHT22;11658;48.908;9.140;2023-06-26T12:29:53;28.80;99.90
22984;DHT22;11658;48.908;9.140;2023-06-26T12:32:19;28.80;99.90
22984;DHT22;11658;48.908;9.140;2023-06-26T12:34:56;29.10;99.90
22984;DHT22;11658;48.908;9.140;2023-06-26T12:37:22;29.00;99.10
22984;DHT22;11658;48.908;9.140;2023-06-26T12:42:19;29.40;99.10
22984;DHT22;11658;48.908;9.140;2023-06-26T12:44:46;29.00;98.80
22984;DHT22;11658;48.908;9.140;2023-06-26T12:47:12;28.70;98.90
22984;DHT22;11658;48.908;9.140;2023-06-26T12:49:41;28.80;99.20
22984;DHT22;11658;48.908;9.140;2023-06-26T12:52:12;29.00;98.40
22984;DHT22;11658;48.908;9.140;2023-06-26T12:54:41;29.10;98.70
22984;DHT22;11658;48.908;9.140;2023-06-26T12:57:07;29.30;98.90
22984;DHT22;11658;48.908;9.140;2023-06-26T12:59:35;29.40;98.30
22984;DHT22;11658;48.908;9.140;2023-06-26T13:02:01;29.10;97.50
22984;DHT22;11658;48.908;9.140;2023-06-26T13:04:27;28.90;98.10
22984;DHT22;11658;48.908;9.140;2023-06-26T13:06:52;28.70;97.30
22984;DHT22;11658;48.908;9.140;2023-06-26T13:09:21;28.40;97.40
22984;DHT22;11658;48.908;9.140;2023-06-26T13:11:47;28.80;97.10
22984;DHT22;11658;48.908;9.140;2023-06-26T13:14:12;28.80;96.70
22984;DHT22;11658;48.908;9.140;2023-06-26T13:16:39;28.90;96.00
22984;DHT22;11658;48.908;9.140;2023-06-26T13:19:05;28.60;95.90
22984;DHT22;11658;48.908;9.140;2023-06-26T13:21:30;28.70;95.90
22984;DHT22;11658;48.908;9.140;2023-06-26T13:23:56;29.00;95.10
22984;DHT22;11658;48.908;9.140;2023-06-26T13:26:22;28.90;95.10
22984;DHT22;11658;48.908;9.140;2023-06-26T13:28:49;29.10;94.80
22984;DHT22;11658;48.908;9.140;2023-06-26T13:31:15;29.00;94.40
22984;DHT22;11658;48.908;9.140;2023-06-26T13:33:41;29.30;94.00
22984;DHT22;11658;48.908;9.140;2023-06-26T13:36:06;29.30;94.10
22984;DHT22;11658;48.908;9.140;2023-06-26T13:38:35;29.40;93.50
22984;DHT22;11658;48.908;9.140;2023-06-26T13:41:01;29.30;93.70
22984;DHT22;11658;48.908;9.140;2023-06-26T13:43:27;29.30;93.80
22984;DHT22;11658;48.908;9.140;2023-06-26T13:45:54;29.10;92.90
22984;DHT22;11658;48.908;9.140;2023-06-26T13:48:19;29.20;92.10
22984;DHT22;11658;48.908;9.140;2023-06-26T13:50:46;29.10;91.40
22984;DHT22;11658;48.908;9.140;2023-06-26T13:53:12;29.00;91.30
22984;DHT22;11658;48.908;9.140;2023-06-26T13:55:38;29.00;91.40
22984;DHT22;11658;48.908;9.140;2023-06-26T13:58:07;28.80;92.00
22984;DHT22;11658;48.908;9.140;2023-06-26T14:00:34;29.00;92.00
22984;DHT22;11658;48.908;9.140;2023-06-26T14:03:01;28.90;91.60
22984;DHT22;11658;48.908;9.140;2023-06-26T14:05:28;28.80;91.80
22984;DHT22;11658;48.908;9.140;2023-06-26T14:07:54;28.90;91.20
22984;DHT22;11658;48.908;9.140;2023-06-26T14:10:20;28.90;91.20
22984;DHT22;11658;48.908;9.140;2023-06-26T14:12:46;28.90;91.00
22984;DHT22;11658;48.908;9.140;2023-06-26T14:15:12;28.80;91.30
22984;DHT22;11658;48.908;9.140;2023-06-26T14:17:38;28.90;90.80
22984;DHT22;11658;48.908;9.140;2023-06-26T14:20:07;29.00;91.10
22984;DHT22;11658;48.908;9.140;2023-06-26T14:22:39;29.30;90.80
22984;DHT22;11658;48.908;9.140;2023-06-26T14:25:06;29.20;90.30
22984;DHT22;11658;48.908;9.140;2023-06-26T14:27:31;29.10;90.60
22984;DHT22;11658;48.908;9.140;2023-06-26T14:29:57;28.90;91.00
22984;DHT22;11658;48.908;9.140;2023-06-26T14:32:23;28.90;91.00
22984;DHT22;11658;48.908;9.140;2023-06-26T14:34:48;28.60;91.00
22984;DHT22;11658;48.908;9.140;2023-06-26T14:37:14;28.70;90.90
22984;DHT22;11658;48.908;9.140;2023-06-26T14:39:39;28.70;91.00
22984;DHT22;11658;48.908;9.140;2023-06-26T14:42:05;28.80;90.90
22984;DHT22;11658;48.908;9.140;2023-06-26T14:44:31;28.90;90.90
22984;DHT22;11658;48.908;9.140;2023-06-26T14:46:56;28.90;90.90
22984;DHT22;11658;48.908;9.140;2023-06-26T14:49:22;28.80;91.20
22984;DHT22;11658;48.908;9.140;2023-06-26T14:51:48;28.70;90.70
22984;DHT22;11658;48.908;9.140;2023-06-26T14:54:13;28.60;91.10
22984;DHT22;11658;48.908;9.140;2023-06-26T14:56:39;28.80;91.30
22984;DHT22;11658;48.908;9.140;2023-06-26T14:59:04;28.80;91.30
22984;DHT22;11658;48.908;9.140;2023-06-26T15:01:33;29.10;91.40
22984;DHT22;11658;48.908;9.140;2023-06-26T15:03:58;29.20;90.70
22984;DHT22;11658;48.908;9.140;2023-06-26T15:06:24;28.80;91.30
22984;DHT22;11658;48.908;9.140;2023-06-26T15:08:49;28.80;90.80
22984;DHT22;11658;48.908;9.140;2023-06-26T15:11:15;28.80;91.30
22984;DHT22;11658;48.908;9.140;2023-06-26T15:13:41;28.70;90.50
22984;DHT22;11658;48.908;9.140;2023-06-26T15:16:06;28.50;90.60
22984;DHT22;11658;48.908;9.140;2023-06-26T15:18:32;28.60;90.60
22984;DHT22;11658;48.908;9.140;2023-06-26T15:20:57;28.80;90.60
22984;DHT22;11658;48.908;9.140;2023-06-26T15:23:23;28.60;90.20
22984;DHT22;11658;48.908;9.140;2023-06-26T15:25:49;28.60;89.90
22984;DHT22;11658;48.908;9.140;2023-06-26T15:28:14;28.50;90.20
22984;DHT22;11658;48.908;9.140;2023-06-26T15:30:40;28.70;90.50
22984;DHT22;11658;48.908;9.140;2023-06-26T15:33:06;28.80;90.50
22984;DHT22;11658;48.908;9.140;2023-06-26T15:35:31;28.80;90.50
22984;DHT22;11658;48.908;9.140;2023-06-26T15:37:57;28.80;90.90
22984;DHT22;11658;48.908;9.140;2023-06-26T15:40:22;28.60;91.00
22984;DHT22;11658;48.908;9.140;2023-06-26T15:42:50;28.20;91.00
22984;DHT22;11658;48.908;9.140;2023-06-26T15:45:16;28.10;91.10
22984;DHT22;11658;48.908;9.140;2023-06-26T15:47:51;28.00;91.30
22984;DHT22;11658;48.908;9.140;2023-06-26T15:50:17;28.00;91.10
22984;DHT22;11658;48.908;9.140;2023-06-26T15:52:45;28.00;91.30
22984;DHT22;11658;48.908;9.140;2023-06-26T15:55:10;28.30;91.10
22984;DHT22;11658;48.908;9.140;2023-06-26T15:57:36;28.40;90.90
22984;DHT22;11658;48.908;9.140;2023-06-26T16:00:03;28.30;90.90
22984;DHT22;11658;48.908;9.140;2023-06-26T16:02:29;28.20;90.90
22984;DHT22;11658;48.908;9.140;2023-06-26T16:04:55;28.10;91.00
22984;DHT22;11658;48.908;9.140;2023-06-26T16:07:20;27.70;91.00
22984;DHT22;11658;48.908;9.140;2023-06-26T16:09:47;27.50;91.00
22984;DHT22;11658;48.908;9.140;2023-06-26T16:12:12;27.40;90.70
22984;DHT22;11658;48.908;9.140;2023-06-26T16:14:39;27.30;90.50
22984;DHT22;11658;48.908;9.140;2023-06-26T16:17:05;27.20;90.50
22984;DHT22;11658;48.908;9.140;2023-06-26T16:19:31;27.20;90.40
22984;DHT22;11658;48.908;9.140;2023-06-26T16:21:56;27.40;90.10
22984;DHT22;11658;48.908;9.140;2023-06-26T16:24:22;27.50;89.30
22984;DHT22;11658;48.908;9.140;2023-06-26T16:26:47;27.70;88.80
22984;DHT22;11658;48.908;9.140;2023-06-26T16:29:13;27.70;87.50
22984;DHT22;11658;48.908;9.140;2023-06-26T16:31:38;27.60;86.20
22984;DHT22;11658;48.908;9.140;2023-06-26T16:34:04;27.80;86.30
22984;DHT22;11658;48.908;9.140;2023-06-26T16:36:30;28.10;84.00
22984;DHT22;11658;48.908;9.140;2023-06-26T16:38:55;28.10;82.10
22984;DHT22;11658;48.908;9.140;2023-06-26T16:41:21;28.00;80.50
22984;DHT22;11658;48.908;9.140;2023-06-26T16:43:46;28.20;80.60
22984;DHT22;11658;48.908;9.140;2023-06-26T16:46:12;28.50;78.70
22984;DHT22;11658;48.908;9.140;2023-06-26T16:48:38;28.30;75.00
22984;DHT22;11658;48.908;9.140;2023-06-26T16:51:05;27.80;74.00
22984;DHT22;11658;48.908;9.140;2023-06-26T16:53:31;28.10;74.30
22984;DHT22;11658;48.908;9.140;2023-06-26T16:55:56;28.00;73.20
22984;DHT22;11658;48.908;9.140;2023-06-26T16:58:22;27.90;71.90
22984;DHT22;11658;48.908;9.140;2023-06-26T17:00:48;27.40;72.10
22984;DHT22;11658;48.908;9.140;2023-06-26T17:03:14;27.70;72.00
22984;DHT22;11658;48.908;9.140;2023-06-26T17:05:39;27.90;70.30
22984;DHT22;11658;48.908;9.140;2023-06-26T17:08:05;28.20;67.80
22984;DHT22;11658;48.908;9.140;2023-06-26T17:10:34;28.20;65.80
22984;DHT22;11658;48.908;9.140;2023-06-26T17:13:00;28.30;64.70
22984;DHT22;11658;48.908;9.140;2023-06-26T17:15:26;28.40;61.20
22984;DHT22;11658;48.908;9.140;2023-06-26T17:17:51;28.10;61.30
22984;DHT22;11658;48.908;9.140;2023-06-26T17:20:18;28.30;62.20
22984;DHT22;11658;48.908;9.140;2023-06-26T17:22:44;28.90;62.50
22984;DHT22;11658;48.908;9.140;2023-06-26T17:25:10;29.00;61.90
22984;DHT22;11658;48.908;9.140;2023-06-26T17:27:37;28.90;61.50
22984;DHT22;11658;48.908;9.140;2023-06-26T17:30:03;28.80;61.90
22984;DHT22;11658;48.908;9.140;2023-06-26T17:32:29;28.50;61.50
22984;DHT22;11658;48.908;9.140;2023-06-26T17:34:58;28.20;61.20
22984;DHT22;11658;48.908;9.140;2023-06-26T17:37:24;28.00;61.80
22984;DHT22;11658;48.908;9.140;2023-06-26T17:39:51;27.70;61.80
22984;DHT22;11658;48.908;9.140;2023-06-26T17:42:16;27.70;62.40
22984;DHT22;11658;48.908;9.140;2023-06-26T17:44:42;27.80;62.90
22984;DHT22;11658;48.908;9.140;2023-06-26T17:47:08;27.70;63.60
22984;DHT22;11658;48.908;9.140;2023-06-26T17:49:33;27.90;63.40
22984;DHT22;11658;48.908;9.140;2023-06-26T17:51:59;27.30;64.20
22984;DHT22;11658;48.908;9.140;2023-06-26T17:54:26;26.80;65.50
22984;DHT22;11658;48.908;9.140;2023-06-26T17:56:52;26.50;67.20
22984;DHT22;11658;48.908;9.140;2023-06-26T17:59:18;26.40;67.60
22984;DHT22;11658;48.908;9.140;2023-06-26T18:01:44;26.40;68.30
22984;DHT22;11658;48.908;9.140;2023-06-26T18:04:10;26.30;68.60
22984;DHT22;11658;48.908;9.140;2023-06-26T18:06:35;26.00;70.50
22984;DHT22;11658;48.908;9.140;2023-06-26T18:09:02;26.10;71.10
22984;DHT22;11658;48.908;9.140;2023-06-26T18:11:30;25.80;71.10
22984;DHT22;11658;48.908;9.140;2023-06-26T18:13:56;25.50;71.80
22984;DHT22;11658;48.908;9.140;2023-06-26T18:16:24;25.30;72.00
22984;DHT22;11658;48.908;9.140;2023-06-26T18:18:50;25.00;72.60
22984;DHT22;11658;48.908;9.140;2023-06-26T18:21:17;25.00;73.50
22984;DHT22;11658;48.908;9.140;2023-06-26T18:23:42;24.90;73.70
22984;DHT22;11658;48.908;9.140;2023-06-26T18:26:08;24.90;74.00
22984;DHT22;11658;48.908;9.140;2023-06-26T18:28:33;24.90;74.00
22984;DHT22;11658;48.908;9.140;2023-06-26T18:30:59;24.80;74.70
22984;DHT22;11658;48.908;9.140;2023-06-26T18:33:25;24.70;75.20
22984;DHT22;11658;48.908;9.140;2023-06-26T18:35:52;24.50;75.10
22984;DHT22;11658;48.908;9.140;2023-06-26T18:38:18;24.40;75.00
22984;DHT22;11658;48.908;9.140;2023-06-26T18:40:44;24.30;75.40
22984;DHT22;11658;48.908;9.140;2023-06-26T18:43:10;24.20;75.20
22984;DHT22;11658;48.908;9.140;2023-06-26T18:45:36;24.10;75.50
22984;DHT22;11658;48.908;9.140;2023-06-26T18:48:01;24.00;75.90
22984;DHT22;11658;48.908;9.140;2023-06-26T18:50:30;23.80;74.90
22984;DHT22;11658;48.908;9.140;2023-06-26T18:52:56;23.70;74.60
22984;DHT22;11658;48.908;9.140;2023-06-26T18:55:22;23.60;73.90
22984;DHT22;11658;48.908;9.140;2023-06-26T18:57:48;23.50;74.40
22984;DHT22;11658;48.908;9.140;2023-06-26T19:00:14;23.50;74.70
22984;DHT22;11658;48.908;9.140;2023-06-26T19:02:42;23.30;74.60
22984;DHT22;11658;48.908;9.140;2023-06-26T19:05:07;23.30;75.20
22984;DHT22;11658;48.908;9.140;2023-06-26T19:07:33;23.20;75.30
22984;DHT22;11658;48.908;9.140;2023-06-26T19:09:59;23.10;75.40
22984;DHT22;11658;48.908;9.140;2023-06-26T19:12:24;23.10;75.70
22984;DHT22;11658;48.908;9.140;2023-06-26T19:14:50;23.00;76.90
22984;DHT22;11658;48.908;9.140;2023-06-26T19:17:17;22.90;76.40
22984;DHT22;11658;48.908;9.140;2023-06-26T19:19:43;22.80;77.10
22984;DHT22;11658;48.908;9.140;2023-06-26T19:22:09;22.70;77.60
22984;DHT22;11658;48.908;9.140;2023-06-26T19:24:34;22.70;77.90
22984;DHT22;11658;48.908;9.140;2023-06-26T19:27:00;22.60;78.20
22984;DHT22;11658;48.908;9.140;2023-06-26T19:29:26;22.50;78.50
22984;DHT22;11658;48.908;9.140;2023-06-26T19:31:51;22.50;78.60
22984;DHT22;11658;48.908;9.140;2023-06-26T19:34:18;22.50;78.70